Time;durP1;ratioP1;P1;durP2;ratioP2;P2;SDS_P1;SDS_P2;PMS_P1;PMS_P2;Temp;Humidity;BMP_temperature;BMP_pressure;BME280_temperature;BME280_humidity;BME280_pressure;Samples;Min_cycle;Max_cycle;Signal;HPM_P1;HPM_P2
2022/03/11 00:02:25;;;;;;;;;;;;;;;5.62;49.11;101811.66;5121185;27;19923;-80
2022/03/11 00:04:50;;;;;;;;;;;;;;;5.61;48.81;101810.78;5122296;27;20277;-80
2022/03/11 00:07:15;;;;;;;;;;;;;;;5.59;49.22;101801.28;5104061;27;20062;-80
2022/03/11 00:09:41;;;;;;;;;;;;;;;5.60;48.88;101809.00;5125008;27;19945;-80
2022/03/11 00:12:07;;;;;;;;;;;;;;;5.59;49.13;101802.16;5126783;27;20385;-80
2022/03/11 00:14:33;;;;;;;;;;;;;;;5.55;48.84;101801.84;5127105;27;19953;-80
2022/03/11 00:16:58;;;;;;;;;;;;;;;5.49;49.09;101798.91;5126540;27;19920;-80
2022/03/11 00:19:23;;;;;;;;;;;;;;;5.56;48.99;101798.50;5120291;27;19938;-80
2022/03/11 00:21:49;;;;;;;;;;;;;;;5.63;48.73;101793.00;5105852;27;19976;-80
2022/03/11 00:24:14;;;;;;;;;;;;;;;5.60;48.92;101795.38;5105915;27;19928;-80
2022/03/11 00:26:40;;;;;;;;;;;;;;;5.59;48.80;101791.06;5123324;27;20424;-80
2022/03/11 00:29:05;;;;;;;;;;;;;;;5.54;48.88;101789.88;5120382;27;20289;-79
2022/03/11 00:31:30;;;;;;;;;;;;;;;5.57;48.80;101787.50;5124424;27;20010;-79
2022/03/11 00:33:56;;;;;;;;;;;;;;;5.58;48.75;101786.72;5103941;27;20393;-80
2022/03/11 00:36:22;;;;;;;;;;;;;;;5.60;48.73;101788.59;5127099;27;19920;-79
2022/03/11 00:38:47;;;;;;;;;;;;;;;5.63;48.60;101782.78;5126274;27;20072;-79
2022/03/11 00:41:16;;;;;;;;;;;;;;;5.62;48.52;101788.69;5106811;27;20437;-79
2022/03/11 00:43:42;;;;;;;;;;;;;;;5.63;48.36;101783.69;5103217;27;20008;-80
2022/03/11 00:46:07;;;;;;;;;;;;;;;5.66;48.19;101785.56;5108664;27;19958;-79
2022/03/11 00:48:32;;;;;;;;;;;;;;;5.65;48.22;101777.03;5104143;27;19927;-79
2022/03/11 00:50:58;;;;;;;;;;;;;;;5.63;48.33;101781.13;5121503;27;19927;-79
2022/03/11 00:53:24;;;;;;;;;;;;;;;5.60;48.32;101780.06;5102629;27;19923;-79
2022/03/11 00:55:50;;;;;;;;;;;;;;;5.67;47.55;101776.22;5121335;27;19920;-79
2022/03/11 00:58:15;;;;;;;;;;;;;;;5.64;48.03;101774.34;5122835;27;19946;-79
2022/03/11 01:00:40;;;;;;;;;;;;;;;5.61;47.74;101769.94;5109193;27;20022;-79
2022/03/11 01:03:06;;;;;;;;;;;;;;;5.59;48.29;101778.31;5103779;27;20311;-79
2022/03/11 01:05:31;;;;;;;;;;;;;;;5.57;48.22;101778.19;5108137;27;20112;-80
2022/03/11 01:07:57;;;;;;;;;;;;;;;5.57;47.91;101767.09;5103940;27;19919;-80
2022/03/11 01:10:22;;;;;;;;;;;;;;;5.54;48.10;101765.25;5121409;27;19923;-80
2022/03/11 01:12:47;;;;;;;;;;;;;;;5.51;48.58;101764.16;5125862;27;19934;-80
2022/03/11 01:27:38;;;;;;;;;;;;;;;5.39;48.69;101741.31;5105540;27;19970;-81
2022/03/11 01:30:23;;;;;;;;;;;;;;;5.34;48.45;101738.50;5068797;28;19969;-81
2022/03/11 01:32:48;;;;;;;;;;;;;;;5.37;48.57;101742.91;5084307;28;20298;-81
2022/03/11 01:35:14;;;;;;;;;;;;;;;5.37;48.01;101731.03;5099866;28;20260;-81
2022/03/11 01:37:39;;;;;;;;;;;;;;;5.31;48.33;101733.19;5101185;28;20370;-81
2022/03/11 01:40:04;;;;;;;;;;;;;;;5.28;48.51;101725.38;5101397;28;20067;-81
2022/03/11 01:42:34;;;;;;;;;;;;;;;5.28;48.40;101722.81;5104889;28;19920;-80
2022/03/11 01:44:59;;;;;;;;;;;;;;;5.27;48.67;101718.47;5093966;28;19934;-80
2022/03/11 01:47:24;;;;;;;;;;;;;;;5.19;48.81;101712.03;5098891;28;20018;-81
2022/03/11 01:49:50;;;;;;;;;;;;;;;5.20;48.45;101718.00;5098206;28;19924;-81
2022/03/11 01:52:15;;;;;;;;;;;;;;;5.22;48.57;101709.69;5103459;28;19920;-81
2022/03/11 01:54:44;;;;;;;;;;;;;;;5.14;49.01;101698.09;5096869;28;19924;-80
2022/03/11 01:57:09;;;;;;;;;;;;;;;5.14;48.50;101697.22;5101253;28;20458;-80
2022/03/11 01:59:34;;;;;;;;;;;;;;;5.17;48.75;101693.22;5104781;28;20010;-81
2022/03/11 02:01:59;;;;;;;;;;;;;;;5.15;48.79;101687.13;5100482;28;19919;-81
2022/03/11 02:04:25;;;;;;;;;;;;;;;5.11;48.79;101690.28;5079017;28;19919;-81
2022/03/11 02:06:50;;;;;;;;;;;;;;;5.12;48.86;101684.38;5101813;28;19923;-80
2022/03/11 02:09:15;;;;;;;;;;;;;;;5.15;48.65;101674.38;5100878;28;19931;-80
2022/03/11 02:11:41;;;;;;;;;;;;;;;5.09;49.21;101684.19;5098179;28;20336;-80
2022/03/11 02:14:06;;;;;;;;;;;;;;;5.09;48.53;101673.97;5094657;28;19928;-80
2022/03/11 02:16:36;;;;;;;;;;;;;;;5.09;48.65;101671.44;5098355;28;19920;-81
2022/03/11 02:19:01;;;;;;;;;;;;;;;5.03;49.10;101665.94;5104262;28;20343;-81
2022/03/11 02:21:27;;;;;;;;;;;;;;;4.95;49.45;101667.16;5105515;28;19920;-80
2022/03/11 02:23:59;;;;;;;;;;;;;;;4.88;49.65;101657.34;5103444;28;20002;-81
2022/03/11 02:26:26;;;;;;;;;;;;;;;4.86;49.53;101664.03;5106286;28;19957;-80
2022/03/11 02:28:52;;;;;;;;;;;;;;;4.85;49.68;101658.03;5098099;28;19930;-80
2022/03/11 02:31:18;;;;;;;;;;;;;;;4.79;49.85;101658.53;5103177;28;19920;-80
2022/03/11 02:33:44;;;;;;;;;;;;;;;4.75;49.89;101651.47;5103521;27;20425;-80
2022/03/11 02:36:09;;;;;;;;;;;;;;;4.71;50.19;101649.50;5107734;28;20018;-80
2022/03/11 02:38:36;;;;;;;;;;;;;;;4.72;50.36;101641.06;5102005;28;19920;-81
2022/03/11 02:41:01;;;;;;;;;;;;;;;4.70;50.29;101642.66;5106437;28;19927;-80
2022/03/11 02:43:26;;;;;;;;;;;;;;;4.68;50.21;101645.91;5106550;27;19919;-79
2022/03/11 02:45:51;;;;;;;;;;;;;;;4.68;49.69;101634.03;5102632;27;19936;-80
2022/03/11 02:48:17;;;;;;;;;;;;;;;4.63;50.70;101643.03;5105878;28;19927;-80
2022/03/11 02:50:43;;;;;;;;;;;;;;;4.61;50.64;101642.09;5105201;28;19967;-79
2022/03/11 02:53:08;;;;;;;;;;;;;;;4.60;50.18;101635.19;5103536;28;19928;-81
2022/03/11 02:55:33;;;;;;;;;;;;;;;4.54;50.50;101639.91;5103758;28;19928;-79
2022/03/11 02:57:59;;;;;;;;;;;;;;;4.50;50.62;101633.75;5102853;28;19920;-79
2022/03/11 03:00:24;;;;;;;;;;;;;;;4.47;50.67;101637.75;5107547;27;19929;-79
2022/03/11 03:02:49;;;;;;;;;;;;;;;4.44;50.59;101629.91;5097622;28;19969;-78
2022/03/11 03:05:15;;;;;;;;;;;;;;;4.42;50.93;101628.91;5102662;28;19929;-79
2022/03/11 03:07:41;;;;;;;;;;;;;;;4.40;51.67;101639.00;5105598;28;21646;-79
2022/03/11 03:10:07;;;;;;;;;;;;;;;4.39;51.45;101636.38;5108282;27;20286;-79
2022/03/11 03:12:32;;;;;;;;;;;;;;;4.36;51.27;101634.50;5107243;27;19916;-79
2022/03/11 03:14:57;;;;;;;;;;;;;;;4.37;50.86;101631.19;5102233;28;19924;-80
2022/03/11 03:17:23;;;;;;;;;;;;;;;4.35;51.24;101632.72;5105572;28;19934;-79
2022/03/11 03:19:48;;;;;;;;;;;;;;;4.37;51.23;101631.19;5105236;28;20011;-79
2022/03/11 03:22:14;;;;;;;;;;;;;;;4.42;50.71;101636.56;5107809;28;19945;-80
2022/03/11 03:24:39;;;;;;;;;;;;;;;4.41;50.68;101627.16;5101352;28;20285;-79
2022/03/11 03:27:05;;;;;;;;;;;;;;;4.40;51.08;101626.28;5104323;28;19936;-79
2022/03/11 03:29:30;;;;;;;;;;;;;;;4.40;50.80;101618.63;5101971;28;20757;-79
2022/03/11 03:31:58;;;;;;;;;;;;;;;4.33;51.15;101619.03;5100725;28;20344;-79
2022/03/11 03:34:30;;;;;;;;;;;;;;;4.29;51.41;101617.94;5107043;28;19969;-80
2022/03/11 03:37:00;;;;;;;;;;;;;;;4.35;50.97;101616.56;5101965;28;19976;-79
2022/03/11 03:39:25;;;;;;;;;;;;;;;4.34;51.18;101619.91;5100944;28;19916;-80
2022/03/11 03:41:51;;;;;;;;;;;;;;;4.41;50.85;101616.97;5105303;28;19920;-79
2022/03/11 03:44:17;;;;;;;;;;;;;;;4.42;51.17;101616.19;5103309;28;19920;-80
2022/03/11 03:46:42;;;;;;;;;;;;;;;4.41;51.60;101611.88;5101650;28;20002;-79
2022/03/11 03:49:07;;;;;;;;;;;;;;;4.39;51.02;101610.91;5106716;28;19922;-79
2022/03/11 03:51:33;;;;;;;;;;;;;;;4.37;50.66;101612.44;5104751;28;19924;-79
2022/03/11 03:53:58;;;;;;;;;;;;;;;4.38;50.62;101619.34;5104477;28;19920;-79
2022/03/11 03:56:23;;;;;;;;;;;;;;;4.40;51.02;101610.13;5104452;28;19971;-80
2022/03/11 03:58:49;;;;;;;;;;;;;;;4.33;51.18;101603.75;5105814;28;19931;-80
2022/03/11 04:01:14;;;;;;;;;;;;;;;4.32;51.14;101611.31;5102508;28;20279;-80
2022/03/11 04:03:39;;;;;;;;;;;;;;;4.34;50.94;101605.50;5102253;27;19964;-80
2022/03/11 04:06:04;;;;;;;;;;;;;;;4.28;50.87;101606.00;5103954;27;19961;-80
2022/03/11 04:08:30;;;;;;;;;;;;;;;4.31;50.89;101600.25;5100866;28;19924;-79
2022/03/11 04:10:55;;;;;;;;;;;;;;;4.38;50.79;101601.50;5101751;28;19919;-79
2022/03/11 04:13:20;;;;;;;;;;;;;;;4.35;50.81;101607.28;5101707;28;20022;-80
2022/03/11 04:15:46;;;;;;;;;;;;;;;4.33;50.63;101603.75;5085228;28;19931;-80
2022/03/11 04:18:14;;;;;;;;;;;;;;;4.27;51.07;101601.69;5101696;28;20396;-80
2022/03/11 04:20:40;;;;;;;;;;;;;;;4.22;51.20;101608.13;5104876;28;20411;-79
2022/03/11 04:23:06;;;;;;;;;;;;;;;4.20;51.23;101601.19;5100541;28;20295;-80
2022/03/11 04:25:31;;;;;;;;;;;;;;;4.22;51.15;101597.97;5095605;28;19920;-80
2022/03/11 04:27:57;;;;;;;;;;;;;;;4.21;51.27;101601.28;5113199;27;19916;-79
2022/03/11 04:30:22;;;;;;;;;;;;;;;4.14;51.14;101605.88;5106276;28;19919;-81
2022/03/11 04:32:47;;;;;;;;;;;;;;;4.18;51.21;101590.88;5098492;28;20374;-80
2022/03/11 04:35:12;;;;;;;;;;;;;;;4.14;51.35;101590.63;5081409;28;19992;-79
2022/03/11 04:37:38;;;;;;;;;;;;;;;4.11;51.84;101587.84;5103976;28;19937;-79
2022/03/11 04:40:04;;;;;;;;;;;;;;;4.13;51.18;101587.19;5103134;28;19923;-79
2022/03/11 04:42:29;;;;;;;;;;;;;;;4.15;51.04;101592.38;5105702;28;19992;-80
2022/03/11 04:44:55;;;;;;;;;;;;;;;4.14;51.44;101591.50;5095428;28;19923;-79
2022/03/11 04:47:20;;;;;;;;;;;;;;;4.12;51.37;101595.59;5101114;28;19924;-80
2022/03/11 04:49:45;;;;;;;;;;;;;;;4.13;51.14;101591.41;5099996;28;19935;-80
2022/03/11 04:52:11;;;;;;;;;;;;;;;4.15;51.09;101589.81;5103634;28;19963;-79
2022/03/11 04:54:36;;;;;;;;;;;;;;;4.11;50.87;101590.41;5102754;28;20462;-79
2022/03/11 04:57:01;;;;;;;;;;;;;;;4.04;51.31;101586.56;5082991;28;19928;-79
2022/03/11 04:59:27;;;;;;;;;;;;;;;4.02;51.55;101590.69;5094715;28;20649;-81
2022/03/11 05:01:52;;;;;;;;;;;;;;;4.02;51.44;101585.59;5101395;28;20406;-79
2022/03/11 05:04:17;;;;;;;;;;;;;;;4.00;51.62;101584.59;5105921;27;19923;-80
2022/03/11 05:06:43;;;;;;;;;;;;;;;3.97;51.82;101582.75;5101908;28;19935;-79
2022/03/11 05:09:08;;;;;;;;;;;;;;;4.01;51.38;101573.66;5102502;28;19920;-80
2022/03/11 05:11:33;;;;;;;;;;;;;;;4.06;51.37;101582.44;5102760;28;19920;-80
2022/03/11 05:13:59;;;;;;;;;;;;;;;4.04;51.58;101578.94;5104382;28;20512;-80
2022/03/11 05:16:24;;;;;;;;;;;;;;;4.07;51.50;101571.53;5101815;28;19933;-80
2022/03/11 05:18:53;;;;;;;;;;;;;;;4.11;51.53;101581.09;5104024;28;19927;-81
2022/03/11 05:21:18;;;;;;;;;;;;;;;4.11;51.40;101578.56;5102724;28;20034;-81
2022/03/11 05:23:43;;;;;;;;;;;;;;;4.16;51.36;101576.31;5099984;28;20555;-81
2022/03/11 05:26:24;;;;;;;;;;;;;;;4.09;51.58;101580.13;5099236;28;19972;-79
2022/03/11 05:28:59;;;;;;;;;;;;;;;4.03;51.60;101572.09;5098813;28;19932;-79
2022/03/11 05:31:26;;;;;;;;;;;;;;;4.00;52.17;101572.78;5099696;28;20725;-79
2022/03/11 05:33:52;;;;;;;;;;;;;;;4.00;52.05;101565.16;5102037;27;19924;-80
2022/03/11 05:36:18;;;;;;;;;;;;;;;3.97;52.38;101571.69;5100978;28;19920;-80
2022/03/11 05:38:43;;;;;;;;;;;;;;;3.91;52.52;101568.75;5102781;28;20014;-80
2022/03/11 05:41:08;;;;;;;;;;;;;;;3.98;52.60;101566.69;5098645;28;20018;-78
2022/03/11 05:43:34;;;;;;;;;;;;;;;3.98;52.46;101563.28;5101067;28;20304;-80
2022/03/11 05:45:59;;;;;;;;;;;;;;;3.98;52.33;101564.16;5103548;28;19926;-80
2022/03/11 05:48:24;;;;;;;;;;;;;;;3.95;52.68;101566.50;5098928;28;20325;-81
2022/03/11 05:50:50;;;;;;;;;;;;;;;3.93;52.53;101557.00;5097722;28;19978;-81
2022/03/11 05:53:15;;;;;;;;;;;;;;;3.89;52.66;101570.31;5091774;28;20328;-80
2022/03/11 05:55:41;;;;;;;;;;;;;;;3.86;53.14;101568.44;5098447;28;19927;-80
2022/03/11 05:58:06;;;;;;;;;;;;;;;3.92;52.93;101558.66;5098955;28;19988;-79
2022/03/11 06:00:31;;;;;;;;;;;;;;;3.91;53.20;101562.00;5095823;28;19928;-79
2022/03/11 06:02:56;;;;;;;;;;;;;;;3.88;53.63;101560.88;5093878;28;19956;-79
2022/03/11 06:05:22;;;;;;;;;;;;;;;3.89;53.50;101549.97;5099110;28;19923;-79
2022/03/11 06:07:47;;;;;;;;;;;;;;;3.89;53.60;101562.69;5102097;28;20456;-80
2022/03/11 06:10:12;;;;;;;;;;;;;;;3.88;53.72;101554.13;5102165;28;19936;-80
2022/03/11 06:12:37;;;;;;;;;;;;;;;3.86;53.72;101560.78;5104597;28;19966;-80
2022/03/11 06:15:11;;;;;;;;;;;;;;;3.84;54.31;101564.03;5104240;27;19930;-79
2022/03/11 06:17:36;;;;;;;;;;;;;;;3.85;54.17;101556.50;5108186;28;19924;-79
2022/03/11 06:20:02;;;;;;;;;;;;;;;3.89;54.08;101555.03;5107753;28;19946;-79
2022/03/11 06:22:27;;;;;;;;;;;;;;;3.96;53.71;101563.19;5108745;28;20493;-80
2022/03/11 06:24:53;;;;;;;;;;;;;;;3.98;53.71;101563.28;5108898;28;19972;-79
2022/03/11 06:27:18;;;;;;;;;;;;;;;4.00;53.60;101554.06;5101680;28;20278;-79
2022/03/11 06:29:43;;;;;;;;;;;;;;;4.02;53.98;101563.56;5105052;28;20378;-80
2022/03/11 06:32:08;;;;;;;;;;;;;;;4.13;53.55;101569.38;5103789;28;19932;-79
2022/03/11 06:34:34;;;;;;;;;;;;;;;4.26;53.61;101563.41;5106500;27;19934;-81
2022/03/11 06:36:59;;;;;;;;;;;;;;;4.52;53.12;101565.06;5108557;28;20294;-79
2022/03/11 06:39:24;;;;;;;;;;;;;;;5.19;51.34;101563.28;5104872;28;19984;-80
2022/03/11 06:41:49;;;;;;;;;;;;;;;5.77;50.38;101565.09;5103839;28;19939;-79
2022/03/11 06:44:16;;;;;;;;;;;;;;;6.34;48.50;101560.69;5107840;28;19989;-79
2022/03/11 06:46:41;;;;;;;;;;;;;;;6.79;47.62;101557.22;5108490;28;19923;-79
2022/03/11 06:49:06;;;;;;;;;;;;;;;7.25;46.38;101550.34;5101581;28;19920;-79
2022/03/11 06:51:32;;;;;;;;;;;;;;;7.60;46.00;101550.41;5101894;28;19940;-79
2022/03/11 06:53:57;;;;;;;;;;;;;;;8.08;44.24;101554.53;5107785;28;20180;-79
2022/03/11 06:56:23;;;;;;;;;;;;;;;8.50;43.36;101557.44;5104446;28;19923;-80
2022/03/11 06:58:48;;;;;;;;;;;;;;;8.86;42.29;101548.91;5109238;28;19964;-80
2022/03/11 07:01:14;;;;;;;;;;;;;;;9.21;42.46;101543.59;5101704;28;19927;-79
2022/03/11 07:03:39;;;;;;;;;;;;;;;9.80;40.38;101545.28;5107397;28;20301;-79
2022/03/11 07:06:05;;;;;;;;;;;;;;;10.03;39.43;101538.53;5103176;28;19920;-78
2022/03/11 07:08:30;;;;;;;;;;;;;;;10.25;39.21;101540.31;5107651;27;19920;-78
2022/03/11 07:10:55;;;;;;;;;;;;;;;10.42;38.59;101534.16;5103221;28;19926;-78
2022/03/11 07:13:21;;;;;;;;;;;;;;;10.58;39.19;101527.91;5102135;28;19930;-79
2022/03/11 07:15:46;;;;;;;;;;;;;;;10.65;38.16;101529.91;5104024;28;20053;-79
2022/03/11 07:18:12;;;;;;;;;;;;;;;10.73;37.72;101528.47;5105455;28;19958;-79
2022/03/11 07:20:37;;;;;;;;;;;;;;;11.03;37.81;101531.31;5104264;28;19963;-78
2022/03/11 07:23:03;;;;;;;;;;;;;;;11.49;36.02;101527.84;5102612;28;19919;-79
2022/03/11 07:25:28;;;;;;;;;;;;;;;11.63;36.00;101531.75;5110841;27;19929;-80
2022/03/11 07:27:56;;;;;;;;;;;;;;;12.09;36.02;101535.91;5115917;27;19995;-79
2022/03/11 07:30:21;;;;;;;;;;;;;;;12.29;34.65;101541.69;5104759;28;19941;-80
2022/03/11 07:32:47;;;;;;;;;;;;;;;12.59;34.81;101539.19;5103257;28;20422;-78
2022/03/11 07:35:12;;;;;;;;;;;;;;;13.28;34.14;101526.59;5095502;28;20499;-79
2022/03/11 07:37:39;;;;;;;;;;;;;;;13.79;33.95;101534.00;5104327;28;19964;-79
2022/03/11 07:40:04;;;;;;;;;;;;;;;14.12;31.51;101525.34;5106406;28;19924;-81
2022/03/11 07:42:31;;;;;;;;;;;;;;;14.13;32.10;101527.94;5109483;27;21353;-79
2022/03/11 07:44:56;;;;;;;;;;;;;;;13.89;31.63;101533.41;5103759;28;19962;-80
2022/03/11 07:47:22;;;;;;;;;;;;;;;14.33;32.87;101536.22;5099181;28;19974;-79
2022/03/11 07:49:47;;;;;;;;;;;;;;;14.95;30.82;101523.78;5104628;27;19934;-81
2022/03/11 07:52:15;;;;;;;;;;;;;;;14.97;29.94;101523.81;5107295;28;19928;-79
2022/03/11 07:54:43;;;;;;;;;;;;;;;14.64;30.66;101530.03;5103658;28;21418;-80
2022/03/11 07:57:09;;;;;;;;;;;;;;;14.63;30.50;101524.84;5108138;28;19928;-80
2022/03/11 07:59:36;;;;;;;;;;;;;;;14.97;31.04;101513.47;5104425;28;19927;-79
2022/03/11 08:02:01;;;;;;;;;;;;;;;15.08;29.84;101517.16;5108881;28;19916;-78
2022/03/11 08:04:29;;;;;;;;;;;;;;;15.34;29.89;101506.41;5103208;28;19980;-79
2022/03/11 08:06:54;;;;;;;;;;;;;;;15.72;29.16;101504.56;5111134;28;20042;-80
2022/03/11 08:09:19;;;;;;;;;;;;;;;15.75;29.46;101504.59;5086601;28;20089;-79
2022/03/11 08:11:44;;;;;;;;;;;;;;;15.53;29.40;101514.56;5106765;28;19919;-79
2022/03/11 08:14:11;;;;;;;;;;;;;;;15.48;29.03;101500.66;5106910;28;19927;-80
2022/03/11 08:16:36;;;;;;;;;;;;;;;15.44;29.20;101498.84;5108137;28;19924;-81
2022/03/11 08:19:02;;;;;;;;;;;;;;;15.18;29.90;101497.50;5105097;28;20002;-78
2022/03/11 08:21:27;;;;;;;;;;;;;;;15.35;29.53;101490.91;5101026;28;19924;-81
2022/03/11 08:23:53;;;;;;;;;;;;;;;15.50;29.14;101482.53;5101347;28;19923;-80
2022/03/11 08:26:18;;;;;;;;;;;;;;;15.31;29.46;101491.69;5106271;28;19922;-80
2022/03/11 08:28:44;;;;;;;;;;;;;;;15.56;29.75;101496.47;5102557;28;19920;-79
2022/03/11 08:31:09;;;;;;;;;;;;;;;16.28;28.33;101489.88;5108688;28;19915;-79
2022/03/11 08:33:37;;;;;;;;;;;;;;;16.47;27.97;101479.75;5100904;28;20247;-79
2022/03/11 08:36:02;;;;;;;;;;;;;;;16.71;27.91;101480.13;5102049;28;19989;-79
2022/03/11 08:38:27;;;;;;;;;;;;;;;16.89;27.49;101476.88;5096953;28;19924;-79
2022/03/11 08:40:52;;;;;;;;;;;;;;;17.24;26.73;101484.22;5109115;28;20302;-79
2022/03/11 08:43:19;;;;;;;;;;;;;;;17.33;26.91;101485.16;5098677;28;19927;-78
2022/03/11 08:45:44;;;;;;;;;;;;;;;18.10;26.58;101473.72;5103549;28;19965;-79
2022/03/11 08:48:09;;;;;;;;;;;;;;;18.60;25.64;101474.88;5104554;28;19923;-79
2022/03/11 08:50:35;;;;;;;;;;;;;;;19.07;24.95;101482.03;5101437;28;20282;-80
2022/03/11 08:53:01;;;;;;;;;;;;;;;18.40;25.47;101472.16;5087320;28;19931;-80
2022/03/11 08:55:26;;;;;;;;;;;;;;;17.98;26.08;101483.16;5105502;28;19927;-78
2022/03/11 08:57:52;;;;;;;;;;;;;;;18.12;26.65;101472.00;5110281;27;19970;-79
2022/03/11 09:00:19;;;;;;;;;;;;;;;18.29;25.78;101476.44;5097642;28;20418;-79
2022/03/11 09:02:44;;;;;;;;;;;;;;;18.91;25.48;101473.28;5104281;28;19927;-76
2022/03/11 09:05:10;;;;;;;;;;;;;;;18.81;25.00;101477.63;5105535;28;19924;-77
2022/03/11 09:07:36;;;;;;;;;;;;;;;18.44;25.71;101468.69;5102318;28;19931;-79
2022/03/11 09:10:05;;;;;;;;;;;;;;;18.67;25.91;101481.88;5103997;28;19924;-78
2022/03/11 09:12:30;;;;;;;;;;;;;;;18.38;25.35;101481.69;5103745;28;20483;-79
2022/03/11 09:14:55;;;;;;;;;;;;;;;18.15;26.21;101468.56;5103441;28;19920;-77
2022/03/11 09:17:21;;;;;;;;;;;;;;;18.19;26.80;101462.47;5104185;28;19938;-77
2022/03/11 09:19:46;;;;;;;;;;;;;;;18.67;25.88;101464.50;5102604;28;19920;-78
2022/03/11 09:22:12;;;;;;;;;;;;;;;19.02;25.36;101455.97;5103137;28;19916;-78
2022/03/11 09:24:39;;;;;;;;;;;;;;;19.14;25.45;101456.00;5099641;28;20214;-78
2022/03/11 09:27:05;;;;;;;;;;;;;;;20.43;24.62;101448.13;5094140;28;19920;-75
2022/03/11 09:29:30;;;;;;;;;;;;;;;19.95;24.91;101466.50;5101677;28;20169;-77
2022/03/11 09:31:56;;;;;;;;;;;;;;;19.83;24.80;101451.72;5101560;28;19926;-76
2022/03/11 09:34:22;;;;;;;;;;;;;;;19.61;24.56;101455.22;5104249;28;19932;-77
2022/03/11 09:36:48;;;;;;;;;;;;;;;19.42;24.85;101451.69;5100108;27;19971;-78
2022/03/11 09:39:13;;;;;;;;;;;;;;;18.83;25.48;101443.75;5105009;28;20328;-78
2022/03/11 09:41:40;;;;;;;;;;;;;;;19.40;25.89;101439.50;5099026;28;19934;-78
2022/03/11 09:44:05;;;;;;;;;;;;;;;20.02;24.44;101449.97;5099669;28;19999;-77
2022/03/11 09:46:32;;;;;;;;;;;;;;;19.43;25.47;101439.53;5096787;28;20011;-77
2022/03/11 09:48:58;;;;;;;;;;;;;;;20.22;25.47;101426.44;5098906;28;20036;-78
2022/03/11 09:51:23;;;;;;;;;;;;;;;20.97;24.18;101420.91;5096860;28;19928;-78
2022/03/11 09:53:48;;;;;;;;;;;;;;;21.89;23.42;101412.34;5100488;28;19936;-78
2022/03/11 09:56:13;;;;;;;;;;;;;;;22.30;21.82;101409.31;5099918;28;19927;-78
2022/03/11 09:58:39;;;;;;;;;;;;;;;21.88;23.00;101406.25;5103443;28;19928;-79
2022/03/11 10:01:05;;;;;;;;;;;;;;;21.56;23.14;101403.06;5092247;28;20274;-79
2022/03/11 10:03:31;;;;;;;;;;;;;;;21.11;23.27;101398.16;5099485;28;19920;-80
2022/03/11 10:05:56;;;;;;;;;;;;;;;20.52;24.51;101395.88;5101620;28;19919;-77
2022/03/11 10:08:33;;;;;;;;;;;;;;;20.99;23.72;101392.13;5101971;28;19962;-80
2022/03/11 10:11:15;;;;;;;;;;;;;;;21.30;24.26;101388.47;5099454;28;19931;-78
2022/03/11 10:13:41;;;;;;;;;;;;;;;22.59;22.98;101381.91;5111073;28;20453;-78
2022/03/11 10:16:25;;;;;;;;;;;;;;;22.78;22.84;101386.00;5102298;28;20007;-78
2022/03/11 10:18:58;;;;;;;;;;;;;;;23.41;22.43;101378.03;5096679;28;19920;-78
2022/03/11 10:21:37;;;;;;;;;;;;;;;24.08;21.87;101375.97;5102340;28;20390;-78
2022/03/11 10:24:14;;;;;;;;;;;;;;;24.65;20.71;101373.06;5094805;28;19916;-78
2022/03/11 10:26:46;;;;;;;;;;;;;;;24.25;20.66;101371.25;5100181;28;19923;-78
2022/03/11 10:29:16;;;;;;;;;;;;;;;22.91;21.62;101377.09;5101181;28;19998;-79
2022/03/11 10:31:45;;;;;;;;;;;;;;;22.57;22.87;101376.69;5101805;28;19965;-77
2022/03/11 10:34:20;;;;;;;;;;;;;;;23.06;22.18;101385.63;5096022;28;20393;-79
2022/03/11 10:36:48;;;;;;;;;;;;;;;23.25;22.02;101366.09;5099331;28;19916;-78
2022/03/11 10:39:20;;;;;;;;;;;;;;;23.66;22.22;101343.50;5099885;28;20462;-79
2022/03/11 10:41:49;;;;;;;;;;;;;;;24.02;21.50;101350.69;5097512;28;19966;-79
2022/03/11 10:44:16;;;;;;;;;;;;;;;23.66;21.64;101356.63;5100306;28;20258;-82
2022/03/11 10:46:42;;;;;;;;;;;;;;;23.92;21.45;101348.28;5099188;28;19939;-80
2022/03/11 10:49:07;;;;;;;;;;;;;;;23.84;21.26;101351.03;5097797;28;20306;-77
2022/03/11 10:51:37;;;;;;;;;;;;;;;22.91;22.35;101356.09;5102517;28;20401;-80
2022/03/11 10:54:04;;;;;;;;;;;;;;;22.72;22.79;101359.88;5101833;28;19998;-79
2022/03/11 10:56:39;;;;;;;;;;;;;;;22.21;23.74;101341.34;5104700;28;19960;-81
2022/03/11 10:59:23;;;;;;;;;;;;;;;22.57;23.26;101347.84;5106043;28;21170;-79
2022/03/11 11:01:51;;;;;;;;;;;;;;;23.07;22.43;101340.16;5106092;28;19920;-81
2022/03/11 11:04:17;;;;;;;;;;;;;;;23.12;22.20;101333.94;5103026;28;19924;-81
2022/03/11 11:06:43;;;;;;;;;;;;;;;23.39;22.64;101329.09;5107747;28;19920;-82
2022/03/11 11:09:09;;;;;;;;;;;;;;;24.08;21.83;101329.53;5098972;27;19927;-82
2022/03/11 11:11:34;;;;;;;;;;;;;;;23.27;21.89;101328.44;5106920;28;19924;-80
2022/03/11 11:14:04;;;;;;;;;;;;;;;23.01;22.64;101325.38;5106093;28;19938;-81
2022/03/11 11:16:29;;;;;;;;;;;;;;;23.99;21.68;101324.50;5105150;28;19916;-82
2022/03/11 11:18:58;;;;;;;;;;;;;;;24.03;21.28;101320.91;5105155;28;20370;-79
2022/03/11 11:21:25;;;;;;;;;;;;;;;23.54;21.54;101331.47;5103715;28;20026;-79
2022/03/11 11:23:57;;;;;;;;;;;;;;;23.60;21.66;101327.84;5106631;28;19926;-79
2022/03/11 11:26:23;;;;;;;;;;;;;;;23.25;21.45;101326.72;5101560;28;19930;-79
2022/03/11 11:28:50;;;;;;;;;;;;;;;22.59;22.23;101329.47;5105119;28;19923;-78
2022/03/11 11:31:17;;;;;;;;;;;;;;;21.42;23.81;101317.72;5105056;28;19923;-77
2022/03/11 11:33:43;;;;;;;;;;;;;;;21.04;24.33;101304.06;5105773;28;19920;-79
2022/03/11 11:36:09;;;;;;;;;;;;;;;21.29;24.14;101313.47;5102201;28;19934;-78
2022/03/11 11:38:35;;;;;;;;;;;;;;;21.48;23.99;101300.22;5106588;28;19920;-81
2022/03/11 11:41:02;;;;;;;;;;;;;;;20.89;24.11;101289.38;5106520;27;19916;-79
2022/03/11 11:43:29;;;;;;;;;;;;;;;20.81;24.41;101279.00;5093327;28;19920;-77
2022/03/11 11:46:06;;;;;;;;;;;;;;;20.77;24.55;101282.50;5100519;28;20352;-80
2022/03/11 11:48:31;;;;;;;;;;;;;;;20.88;24.75;101275.47;5103841;28;20393;-78
2022/03/11 11:50:58;;;;;;;;;;;;;;;21.67;23.47;101278.22;5104420;27;19923;-79
2022/03/11 11:53:33;;;;;;;;;;;;;;;22.24;23.68;101267.06;5104234;27;20023;-77
2022/03/11 11:55:59;;;;;;;;;;;;;;;22.53;23.06;101274.53;5105969;28;19930;-79
2022/03/11 11:58:25;;;;;;;;;;;;;;;21.84;23.32;101264.91;5104601;28;19915;-78
2022/03/11 12:00:57;;;;;;;;;;;;;;;21.52;23.73;101279.25;5100090;27;20267;-77
2022/03/11 12:03:42;;;;;;;;;;;;;;;21.18;24.79;101265.63;5104461;28;19928;-77
2022/03/11 12:06:08;;;;;;;;;;;;;;;21.65;24.16;101266.88;5090453;28;19924;-79
2022/03/11 12:08:37;;;;;;;;;;;;;;;21.86;23.94;101256.19;5100128;28;19984;-77
2022/03/11 12:11:02;;;;;;;;;;;;;;;22.34;23.11;101248.59;5099749;28;19923;-77
2022/03/11 12:13:34;;;;;;;;;;;;;;;22.71;23.24;101248.03;5101081;28;19972;-77
2022/03/11 12:16:00;;;;;;;;;;;;;;;23.42;22.57;101238.06;5101796;28;19920;-77
2022/03/11 12:18:45;;;;;;;;;;;;;;;23.60;22.30;101226.34;5085143;28;19928;-78
2022/03/11 12:21:24;;;;;;;;;;;;;;;23.48;22.77;101216.09;5113665;27;19920;-78
2022/03/11 12:23:50;;;;;;;;;;;;;;;24.04;22.16;101217.56;5103962;28;19919;-78
2022/03/11 12:26:16;;;;;;;;;;;;;;;24.15;21.13;101226.97;5102257;28;20400;-76
2022/03/11 12:28:43;;;;;;;;;;;;;;;23.14;22.33;101231.59;5102259;28;19979;-77
2022/03/11 12:31:09;;;;;;;;;;;;;;;22.27;23.56;101231.25;5102064;28;20298;-76
2022/03/11 12:33:45;;;;;;;;;;;;;;;22.18;23.52;101231.34;5101753;28;19946;-76
2022/03/11 12:36:28;;;;;;;;;;;;;;;22.29;23.54;101218.97;5104530;28;19920;-77
2022/03/11 12:38:54;;;;;;;;;;;;;;;22.19;23.55;101207.75;5105650;28;19958;-78
2022/03/11 12:41:24;;;;;;;;;;;;;;;21.55;24.23;101213.81;5104986;28;19955;-78
2022/03/11 12:43:49;;;;;;;;;;;;;;;22.21;23.73;101199.91;5097672;28;19989;-77
2022/03/11 12:46:15;;;;;;;;;;;;;;;22.00;23.34;101195.78;5096819;28;20370;-78
2022/03/11 12:48:42;;;;;;;;;;;;;;;21.78;23.89;101199.56;5100134;28;19994;-78
2022/03/11 12:51:08;;;;;;;;;;;;;;;21.46;24.36;101185.13;5098133;28;19920;-77
2022/03/11 12:53:37;;;;;;;;;;;;;;;21.62;24.32;101178.81;5098766;28;19923;-79